sensor_id;sensor_type;location;lat;lon;timestamp;temperature;humidity
1568;DHT22;777;47.156;8.326;2023-05-21T00:01:55;11.30;99.90
1568;DHT22;777;47.156;8.326;2023-05-21T00:04:24;11.30;99.90
1568;DHT22;777;47.156;8.326;2023-05-21T00:06:53;11.30;99.90
1568;DHT22;777;47.156;8.326;2023-05-21T00:09:20;11.30;99.90
1568;DHT22;777;47.156;8.326;2023-05-21T00:11:47;11.20;99.90
1568;DHT22;777;47.156;8.326;2023-05-21T00:14:15;11.20;99.90
1568;DHT22;777;47.156;8.326;2023-05-21T00:16:42;11.20;99.90
1568;DHT22;777;47.156;8.326;2023-05-21T00:19:09;11.20;99.90
1568;DHT22;777;47.156;8.326;2023-05-21T00:21:36;11.10;99.90
1568;DHT22;777;47.156;8.326;2023-05-21T00:24:04;11.00;99.90
1568;DHT22;777;47.156;8.326;2023-05-21T00:26:31;11.00;99.90
1568;DHT22;777;47.156;8.326;2023-05-21T00:28:59;11.00;99.90
1568;DHT22;777;47.156;8.326;2023-05-21T00:31:27;11.00;99.90
1568;DHT22;777;47.156;8.326;2023-05-21T00:33:54;10.90;99.90
1568;DHT22;777;47.156;8.326;2023-05-21T00:36:21;10.90;99.90
1568;DHT22;777;47.156;8.326;2023-05-21T00:38:50;10.90;99.90
1568;DHT22;777;47.156;8.326;2023-05-21T00:41:17;10.90;99.90
1568;DHT22;777;47.156;8.326;2023-05-21T00:43:47;10.90;99.90
1568;DHT22;777;47.156;8.326;2023-05-21T00:46:17;10.90;99.90
1568;DHT22;777;47.156;8.326;2023-05-21T00:48:47;10.90;99.90
1568;DHT22;777;47.156;8.326;2023-05-21T00:51:15;10.90;99.90
1568;DHT22;777;47.156;8.326;2023-05-21T00:53:43;10.90;99.90
1568;DHT22;777;47.156;8.326;2023-05-21T00:56:11;10.80;99.90
1568;DHT22;777;47.156;8.326;2023-05-21T00:58:38;10.70;99.90
1568;DHT22;777;47.156;8.326;2023-05-21T01:01:06;10.80;99.90
1568;DHT22;777;47.156;8.326;2023-05-21T01:03:38;10.70;99.90
1568;DHT22;777;47.156;8.326;2023-05-21T01:06:08;10.70;99.90
1568;DHT22;777;47.156;8.326;2023-05-21T01:08:36;10.60;99.90
1568;DHT22;777;47.156;8.326;2023-05-21T01:11:06;10.70;99.90
1568;DHT22;777;47.156;8.326;2023-05-21T01:13:36;10.70;99.90
1568;DHT22;777;47.156;8.326;2023-05-21T01:16:05;10.80;99.90
1568;DHT22;777;47.156;8.326;2023-05-21T01:18:33;10.80;99.90
1568;DHT22;777;47.156;8.326;2023-05-21T01:21:02;10.80;99.90
1568;DHT22;777;47.156;8.326;2023-05-21T01:23:31;10.80;99.90
1568;DHT22;777;47.156;8.326;2023-05-21T01:25:58;10.90;99.90
1568;DHT22;777;47.156;8.326;2023-05-21T01:28:25;10.80;99.90
1568;DHT22;777;47.156;8.326;2023-05-21T01:30:57;10.70;99.90
1568;DHT22;777;47.156;8.326;2023-05-21T01:33:34;10.70;99.90
1568;DHT22;777;47.156;8.326;2023-05-21T01:36:08;10.70;99.90
1568;DHT22;777;47.156;8.326;2023-05-21T01:38:48;10.70;99.90
1568;DHT22;777;47.156;8.326;2023-05-21T01:41:19;10.70;99.90
1568;DHT22;777;47.156;8.326;2023-05-21T01:43:46;10.80;99.90
1568;DHT22;777;47.156;8.326;2023-05-21T01:46:16;10.70;99.90
1568;DHT22;777;47.156;8.326;2023-05-21T01:48:44;10.60;99.90
1568;DHT22;777;47.156;8.326;2023-05-21T01:51:12;10.50;99.90
1568;DHT22;777;47.156;8.326;2023-05-21T01:53:39;10.30;99.90
1568;DHT22;777;47.156;8.326;2023-05-21T01:56:08;10.30;99.90
1568;DHT22;777;47.156;8.326;2023-05-21T01:58:36;10.40;99.90
1568;DHT22;777;47.156;8.326;2023-05-21T02:01:03;10.40;99.90
1568;DHT22;777;47.156;8.326;2023-05-21T02:03:30;10.50;99.90
1568;DHT22;777;47.156;8.326;2023-05-21T02:05:57;10.40;99.90
1568;DHT22;777;47.156;8.326;2023-05-21T02:08:24;10.30;99.90
1568;DHT22;777;47.156;8.326;2023-05-21T02:10:53;10.40;99.90
1568;DHT22;777;47.156;8.326;2023-05-21T02:13:21;10.50;99.90
1568;DHT22;777;47.156;8.326;2023-05-21T02:15:50;10.50;99.90
1568;DHT22;777;47.156;8.326;2023-05-21T02:18:19;10.50;99.90
1568;DHT22;777;47.156;8.326;2023-05-21T02:20:46;10.50;99.90
1568;DHT22;777;47.156;8.326;2023-05-21T02:23:13;10.50;99.90
1568;DHT22;777;47.156;8.326;2023-05-21T02:25:40;10.50;99.90
1568;DHT22;777;47.156;8.326;2023-05-21T02:28:08;10.40;99.90
1568;DHT22;777;47.156;8.326;2023-05-21T02:30:36;10.50;99.90
1568;DHT22;777;47.156;8.326;2023-05-21T02:33:03;10.10;99.90
1568;DHT22;777;47.156;8.326;2023-05-21T02:35:32;9.90;99.90
1568;DHT22;777;47.156;8.326;2023-05-21T02:37:59;9.90;99.90
1568;DHT22;777;47.156;8.326;2023-05-21T02:40:27;9.90;99.90
1568;DHT22;777;47.156;8.326;2023-05-21T02:42:54;9.90;99.90
1568;DHT22;777;47.156;8.326;2023-05-21T02:45:21;9.90;99.90
1568;DHT22;777;47.156;8.326;2023-05-21T02:47:50;9.80;99.90
1568;DHT22;777;47.156;8.326;2023-05-21T02:50:18;9.80;99.90
1568;DHT22;777;47.156;8.326;2023-05-21T02:52:53;9.70;99.90
1568;DHT22;777;47.156;8.326;2023-05-21T02:55:20;9.70;99.90
1568;DHT22;777;47.156;8.326;2023-05-21T02:57:47;9.60;99.90
1568;DHT22;777;47.156;8.326;2023-05-21T03:00:15;9.50;99.90
1568;DHT22;777;47.156;8.326;2023-05-21T03:02:43;9.50;99.90
1568;DHT22;777;47.156;8.326;2023-05-21T03:05:11;9.50;99.90
1568;DHT22;777;47.156;8.326;2023-05-21T03:07:38;9.50;99.90
1568;DHT22;777;47.156;8.326;2023-05-21T03:10:07;9.50;99.90
1568;DHT22;777;47.156;8.326;2023-05-21T03:12:34;9.40;99.90
1568;DHT22;777;47.156;8.326;2023-05-21T03:15:01;9.40;99.90
1568;DHT22;777;47.156;8.326;2023-05-21T03:17:28;9.40;99.90
1568;DHT22;777;47.156;8.326;2023-05-21T03:19:55;9.40;99.90
1568;DHT22;777;47.156;8.326;2023-05-21T03:22:24;9.30;99.90
1568;DHT22;777;47.156;8.326;2023-05-21T03:24:51;9.30;99.90
1568;DHT22;777;47.156;8.326;2023-05-21T03:27:18;9.20;99.90
1568;DHT22;777;47.156;8.326;2023-05-21T03:29:47;9.10;99.90
1568;DHT22;777;47.156;8.326;2023-05-21T03:32:15;9.10;99.90
1568;DHT22;777;47.156;8.326;2023-05-21T03:34:43;9.10;99.90
1568;DHT22;777;47.156;8.326;2023-05-21T03:37:10;9.10;99.90
1568;DHT22;777;47.156;8.326;2023-05-21T03:39:39;9.10;99.90
1568;DHT22;777;47.156;8.326;2023-05-21T03:42:06;9.20;99.90
1568;DHT22;777;47.156;8.326;2023-05-21T03:44:40;9.10;99.90
1568;DHT22;777;47.156;8.326;2023-05-21T03:47:26;9.20;99.90
1568;DHT22;777;47.156;8.326;2023-05-21T03:49:53;9.10;99.90
1568;DHT22;777;47.156;8.326;2023-05-21T03:52:20;9.00;99.90
1568;DHT22;777;47.156;8.326;2023-05-21T03:54:49;9.00;99.90
1568;DHT22;777;47.156;8.326;2023-05-21T03:57:16;9.00;99.90
1568;DHT22;777;47.156;8.326;2023-05-21T03:59:45;9.00;99.90
1568;DHT22;777;47.156;8.326;2023-05-21T04:02:13;9.00;99.90
1568;DHT22;777;47.156;8.326;2023-05-21T04:04:40;9.00;99.90
1568;DHT22;777;47.156;8.326;2023-05-21T04:07:09;9.00;99.90
1568;DHT22;777;47.156;8.326;2023-05-21T04:09:40;9.00;99.90
1568;DHT22;777;47.156;8.326;2023-05-21T04:12:08;9.10;99.90
1568;DHT22;777;47.156;8.326;2023-05-21T04:14:36;9.10;99.90
1568;DHT22;777;47.156;8.326;2023-05-21T04:17:03;8.90;99.90
1568;DHT22;777;47.156;8.326;2023-05-21T04:19:31;9.00;99.90
1568;DHT22;777;47.156;8.326;2023-05-21T04:21:59;9.00;99.90
1568;DHT22;777;47.156;8.326;2023-05-21T04:24:26;9.00;99.90
1568;DHT22;777;47.156;8.326;2023-05-21T04:27:00;9.10;99.90
1568;DHT22;777;47.156;8.326;2023-05-21T04:29:31;9.20;99.90
1568;DHT22;777;47.156;8.326;2023-05-21T04:31:58;9.20;99.90
1568;DHT22;777;47.156;8.326;2023-05-21T04:34:25;9.00;99.90
1568;DHT22;777;47.156;8.326;2023-05-21T04:36:52;9.00;99.90
1568;DHT22;777;47.156;8.326;2023-05-21T04:39:19;9.10;99.90
1568;DHT22;777;47.156;8.326;2023-05-21T04:41:47;9.20;99.90
1568;DHT22;777;47.156;8.326;2023-05-21T04:44:15;9.10;99.90
1568;DHT22;777;47.156;8.326;2023-05-21T04:46:45;9.20;99.90
1568;DHT22;777;47.156;8.326;2023-05-21T04:49:13;9.10;99.90
1568;DHT22;777;47.156;8.326;2023-05-21T04:51:40;9.20;99.90
1568;DHT22;777;47.156;8.326;2023-05-21T04:54:08;9.30;99.90
1568;DHT22;777;47.156;8.326;2023-05-21T04:56:35;9.40;99.90
1568;DHT22;777;47.156;8.326;2023-05-21T04:59:02;9.60;99.90
1568;DHT22;777;47.156;8.326;2023-05-21T05:01:29;9.70;99.90
1568;DHT22;777;47.156;8.326;2023-05-21T05:03:58;9.80;99.90
1568;DHT22;777;47.156;8.326;2023-05-21T05:06:26;9.90;99.90
1568;DHT22;777;47.156;8.326;2023-05-21T05:08:54;10.10;99.90
1568;DHT22;777;47.156;8.326;2023-05-21T05:11:21;10.00;99.90
1568;DHT22;777;47.156;8.326;2023-05-21T05:13:49;10.10;99.90
1568;DHT22;777;47.156;8.326;2023-05-21T05:16:16;10.20;99.90
1568;DHT22;777;47.156;8.326;2023-05-21T05:18:49;10.20;99.90
1568;DHT22;777;47.156;8.326;2023-05-21T05:21:20;10.30;99.90
1568;DHT22;777;47.156;8.326;2023-05-21T05:23:48;10.60;99.90
1568;DHT22;777;47.156;8.326;2023-05-21T05:26:15;10.70;99.90
1568;DHT22;777;47.156;8.326;2023-05-21T05:28:42;10.90;99.90
1568;DHT22;777;47.156;8.326;2023-05-21T05:31:11;11.00;99.90
1568;DHT22;777;47.156;8.326;2023-05-21T05:33:38;11.10;99.90
1568;DHT22;777;47.156;8.326;2023-05-21T05:36:06;11.20;99.90
1568;DHT22;777;47.156;8.326;2023-05-21T05:38:35;11.40;99.90
1568;DHT22;777;47.156;8.326;2023-05-21T05:41:02;11.60;99.90
1568;DHT22;777;47.156;8.326;2023-05-21T05:43:30;11.60;99.90
1568;DHT22;777;47.156;8.326;2023-05-21T05:45:58;11.80;99.90
1568;DHT22;777;47.156;8.326;2023-05-21T05:48:25;11.80;99.90
1568;DHT22;777;47.156;8.326;2023-05-21T05:50:52;12.00;99.90
1568;DHT22;777;47.156;8.326;2023-05-21T05:53:23;12.30;99.90
1568;DHT22;777;47.156;8.326;2023-05-21T05:55:51;12.40;99.90
1568;DHT22;777;47.156;8.326;2023-05-21T05:58:18;12.40;99.90
1568;DHT22;777;47.156;8.326;2023-05-21T06:00:53;12.60;99.90
1568;DHT22;777;47.156;8.326;2023-05-21T06:03:20;12.80;99.90
1568;DHT22;777;47.156;8.326;2023-05-21T06:05:51;12.90;99.90
1568;DHT22;777;47.156;8.326;2023-05-21T06:08:18;12.80;99.90
1568;DHT22;777;47.156;8.326;2023-05-21T06:10:45;13.00;99.90
1568;DHT22;777;47.156;8.326;2023-05-21T06:13:15;13.00;99.90
1568;DHT22;777;47.156;8.326;2023-05-21T06:15:42;13.00;99.90
1568;DHT22;777;47.156;8.326;2023-05-21T06:18:09;13.20;99.90
1568;DHT22;777;47.156;8.326;2023-05-21T06:20:36;13.30;99.90
1568;DHT22;777;47.156;8.326;2023-05-21T06:23:03;13.40;99.90
1568;DHT22;777;47.156;8.326;2023-05-21T06:25:31;13.50;99.90
1568;DHT22;777;47.156;8.326;2023-05-21T06:27:58;13.40;99.90
1568;DHT22;777;47.156;8.326;2023-05-21T06:30:29;13.50;99.90
1568;DHT22;777;47.156;8.326;2023-05-21T06:32:56;13.60;99.90
1568;DHT22;777;47.156;8.326;2023-05-21T06:35:23;13.70;99.90
1568;DHT22;777;47.156;8.326;2023-05-21T06:37:50;13.80;99.90
1568;DHT22;777;47.156;8.326;2023-05-21T06:40:18;13.70;99.90
1568;DHT22;777;47.156;8.326;2023-05-21T06:42:46;14.20;99.90
1568;DHT22;777;47.156;8.326;2023-05-21T06:45:33;14.40;99.90
1568;DHT22;777;47.156;8.326;2023-05-21T06:48:09;14.60;99.90
1568;DHT22;777;47.156;8.326;2023-05-21T06:50:37;14.80;99.90
1568;DHT22;777;47.156;8.326;2023-05-21T06:53:04;14.90;99.90
1568;DHT22;777;47.156;8.326;2023-05-21T06:55:31;15.20;99.90
1568;DHT22;777;47.156;8.326;2023-05-21T06:58:13;15.20;99.90
1568;DHT22;777;47.156;8.326;2023-05-21T07:00:42;15.20;99.90
1568;DHT22;777;47.156;8.326;2023-05-21T07:03:09;15.00;99.90
1568;DHT22;777;47.156;8.326;2023-05-21T07:05:37;15.10;99.90
1568;DHT22;777;47.156;8.326;2023-05-21T07:08:04;15.50;99.90
1568;DHT22;777;47.156;8.326;2023-05-21T07:10:31;15.60;99.90
1568;DHT22;777;47.156;8.326;2023-05-21T07:12:58;15.80;99.90
1568;DHT22;777;47.156;8.326;2023-05-21T07:15:28;16.00;99.90
1568;DHT22;777;47.156;8.326;2023-05-21T07:17:56;16.20;99.90
1568;DHT22;777;47.156;8.326;2023-05-21T07:20:23;16.70;99.90
1568;DHT22;777;47.156;8.326;2023-05-21T07:22:53;16.90;99.90
1568;DHT22;777;47.156;8.326;2023-05-21T07:25:21;17.40;99.90
1568;DHT22;777;47.156;8.326;2023-05-21T07:27:48;17.40;99.90
1568;DHT22;777;47.156;8.326;2023-05-21T07:30:16;17.40;99.90
1568;DHT22;777;47.156;8.326;2023-05-21T07:32:43;16.60;99.90
1568;DHT22;777;47.156;8.326;2023-05-21T07:35:11;16.90;99.90
1568;DHT22;777;47.156;8.326;2023-05-21T07:37:39;16.80;99.90
1568;DHT22;777;47.156;8.326;2023-05-21T07:40:07;16.60;99.90
1568;DHT22;777;47.156;8.326;2023-05-21T07:42:35;16.50;99.90
1568;DHT22;777;47.156;8.326;2023-05-21T07:45:03;16.50;99.90
1568;DHT22;777;47.156;8.326;2023-05-21T07:47:35;16.70;99.90
1568;DHT22;777;47.156;8.326;2023-05-21T07:50:02;16.80;99.90
1568;DHT22;777;47.156;8.326;2023-05-21T07:52:30;16.80;99.90
1568;DHT22;777;47.156;8.326;2023-05-21T07:55:00;16.90;99.90
1568;DHT22;777;47.156;8.326;2023-05-21T07:57:30;17.10;99.90
1568;DHT22;777;47.156;8.326;2023-05-21T08:00:00;17.30;99.90
1568;DHT22;777;47.156;8.326;2023-05-21T08:12:22;18.00;99.90
1568;DHT22;777;47.156;8.326;2023-05-21T08:14:49;17.80;99.90
1568;DHT22;777;47.156;8.326;2023-05-21T08:17:16;18.10;99.90
1568;DHT22;777;47.156;8.326;2023-05-21T08:19:43;18.50;99.90
1568;DHT22;777;47.156;8.326;2023-05-21T08:22:11;18.60;99.90
1568;DHT22;777;47.156;8.326;2023-05-21T08:27:11;18.90;99.90
1568;DHT22;777;47.156;8.326;2023-05-21T08:29:39;19.20;99.90
1568;DHT22;777;47.156;8.326;2023-05-21T08:32:07;19.00;99.90
1568;DHT22;777;47.156;8.326;2023-05-21T08:34:35;18.90;99.90
1568;DHT22;777;47.156;8.326;2023-05-21T08:37:22;19.00;99.90
1568;DHT22;777;47.156;8.326;2023-05-21T08:39:58;19.00;99.90
1568;DHT22;777;47.156;8.326;2023-05-21T08:42:35;19.00;99.90
1568;DHT22;777;47.156;8.326;2023-05-21T08:45:05;19.00;99.90
1568;DHT22;777;47.156;8.326;2023-05-21T08:47:34;19.50;99.90
1568;DHT22;777;47.156;8.326;2023-05-21T08:50:03;19.70;99.90
1568;DHT22;777;47.156;8.326;2023-05-21T08:52:30;19.80;99.90
1568;DHT22;777;47.156;8.326;2023-05-21T08:54:59;19.70;99.90
1568;DHT22;777;47.156;8.326;2023-05-21T08:57:26;19.20;99.90
1568;DHT22;777;47.156;8.326;2023-05-21T08:59:56;18.70;99.90
1568;DHT22;777;47.156;8.326;2023-05-21T09:02:26;18.90;99.90
1568;DHT22;777;47.156;8.326;2023-05-21T09:04:55;19.10;99.90
1568;DHT22;777;47.156;8.326;2023-05-21T09:07:24;19.40;99.90
1568;DHT22;777;47.156;8.326;2023-05-21T09:10:23;19.50;99.90
1568;DHT22;777;47.156;8.326;2023-05-21T09:12:53;19.70;99.90
1568;DHT22;777;47.156;8.326;2023-05-21T09:15:21;19.30;99.90
1568;DHT22;777;47.156;8.326;2023-05-21T09:17:49;19.30;99.90
1568;DHT22;777;47.156;8.326;2023-05-21T09:20:39;19.20;99.90
1568;DHT22;777;47.156;8.326;2023-05-21T09:23:07;19.90;99.90
1568;DHT22;777;47.156;8.326;2023-05-21T09:25:38;20.20;99.90
1568;DHT22;777;47.156;8.326;2023-05-21T09:28:14;20.50;99.90
1568;DHT22;777;47.156;8.326;2023-05-21T09:30:46;19.20;99.90
1568;DHT22;777;47.156;8.326;2023-05-21T09:33:24;19.50;99.90
1568;DHT22;777;47.156;8.326;2023-05-21T09:35:51;20.10;99.90
1568;DHT22;777;47.156;8.326;2023-05-21T09:38:21;20.70;99.90
1568;DHT22;777;47.156;8.326;2023-05-21T09:40:48;21.10;99.90
1568;DHT22;777;47.156;8.326;2023-05-21T09:43:16;21.70;99.90
1568;DHT22;777;47.156;8.326;2023-05-21T09:45:53;21.80;99.90
1568;DHT22;777;47.156;8.326;2023-05-21T09:48:34;22.20;99.90
1568;DHT22;777;47.156;8.326;2023-05-21T09:51:11;21.80;99.90
1568;DHT22;777;47.156;8.326;2023-05-21T09:53:49;21.60;99.90
1568;DHT22;777;47.156;8.326;2023-05-21T09:56:19;21.20;99.90
1568;DHT22;777;47.156;8.326;2023-05-21T09:58:48;21.30;99.90
1568;DHT22;777;47.156;8.326;2023-05-21T10:01:20;22.00;99.90
1568;DHT22;777;47.156;8.326;2023-05-21T10:03:50;22.40;99.90
1568;DHT22;777;47.156;8.326;2023-05-21T10:06:19;22.00;99.90
1568;DHT22;777;47.156;8.326;2023-05-21T10:08:48;22.50;99.90
1568;DHT22;777;47.156;8.326;2023-05-21T10:11:18;23.30;99.90
1568;DHT22;777;47.156;8.326;2023-05-21T10:16:18;24.10;99.90
1568;DHT22;777;47.156;8.326;2023-05-21T10:18:46;24.40;99.90
1568;DHT22;777;47.156;8.326;2023-05-21T10:21:14;24.90;99.90
1568;DHT22;777;47.156;8.326;2023-05-21T10:23:41;25.00;99.90
1568;DHT22;777;47.156;8.326;2023-05-21T10:26:09;25.00;99.90
1568;DHT22;777;47.156;8.326;2023-05-21T10:28:37;24.00;99.90
1568;DHT22;777;47.156;8.326;2023-05-21T10:31:05;22.80;99.90
1568;DHT22;777;47.156;8.326;2023-05-21T10:33:34;22.50;99.90
1568;DHT22;777;47.156;8.326;2023-05-21T10:36:01;22.20;99.90
1568;DHT22;777;47.156;8.326;2023-05-21T10:38:29;21.70;99.90
1568;DHT22;777;47.156;8.326;2023-05-21T10:40:58;21.40;99.90
1568;DHT22;777;47.156;8.326;2023-05-21T10:43:47;21.90;99.90
1568;DHT22;777;47.156;8.326;2023-05-21T10:46:27;21.10;99.90
1568;DHT22;777;47.156;8.326;2023-05-21T10:49:12;21.40;99.90
1568;DHT22;777;47.156;8.326;2023-05-21T10:51:51;21.90;99.90
1568;DHT22;777;47.156;8.326;2023-05-21T10:54:43;21.60;99.90
1568;DHT22;777;47.156;8.326;2023-05-21T10:57:23;21.90;99.90
1568;DHT22;777;47.156;8.326;2023-05-21T10:59:58;22.70;99.90
1568;DHT22;777;47.156;8.326;2023-05-21T11:02:26;23.70;99.90
1568;DHT22;777;47.156;8.326;2023-05-21T11:04:59;23.90;99.90
1568;DHT22;777;47.156;8.326;2023-05-21T11:07:51;23.40;99.90
1568;DHT22;777;47.156;8.326;2023-05-21T11:10:30;23.30;99.90
1568;DHT22;777;47.156;8.326;2023-05-21T11:13:07;23.00;99.90
1568;DHT22;777;47.156;8.326;2023-05-21T11:16:02;23.30;99.90
1568;DHT22;777;47.156;8.326;2023-05-21T11:18:59;23.80;99.90
1568;DHT22;777;47.156;8.326;2023-05-21T11:21:33;23.60;99.90
1568;DHT22;777;47.156;8.326;2023-05-21T11:24:17;24.10;99.90
1568;DHT22;777;47.156;8.326;2023-05-21T11:27:00;24.00;99.90
1568;DHT22;777;47.156;8.326;2023-05-21T11:29:39;23.80;99.90
1568;DHT22;777;47.156;8.326;2023-05-21T11:32:07;23.90;99.90
1568;DHT22;777;47.156;8.326;2023-05-21T11:34:42;24.60;99.90
1568;DHT22;777;47.156;8.326;2023-05-21T11:37:28;25.10;99.90
1568;DHT22;777;47.156;8.326;2023-05-21T11:42:58;25.90;99.90
1568;DHT22;777;47.156;8.326;2023-05-21T11:45:29;26.20;99.90
1568;DHT22;777;47.156;8.326;2023-05-21T11:47:56;24.70;99.90
1568;DHT22;777;47.156;8.326;2023-05-21T11:50:24;24.70;99.90
1568;DHT22;777;47.156;8.326;2023-05-21T11:52:53;25.10;99.90
1568;DHT22;777;47.156;8.326;2023-05-21T11:55:21;24.80;99.90
1568;DHT22;777;47.156;8.326;2023-05-21T11:57:52;24.90;99.90
1568;DHT22;777;47.156;8.326;2023-05-21T12:00:19;25.20;99.90
1568;DHT22;777;47.156;8.326;2023-05-21T12:02:49;24.10;99.90
1568;DHT22;777;47.156;8.326;2023-05-21T12:05:17;24.40;99.90
1568;DHT22;777;47.156;8.326;2023-05-21T12:07:46;24.20;99.90
1568;DHT22;777;47.156;8.326;2023-05-21T12:10:16;23.50;99.90
1568;DHT22;777;47.156;8.326;2023-05-21T12:12:46;24.00;99.90
1568;DHT22;777;47.156;8.326;2023-05-21T12:17:40;26.20;99.90
1568;DHT22;777;47.156;8.326;2023-05-21T12:20:08;26.70;99.90
1568;DHT22;777;47.156;8.326;2023-05-21T12:22:40;27.90;99.90
1568;DHT22;777;47.156;8.326;2023-05-21T12:25:08;28.90;99.90
1568;DHT22;777;47.156;8.326;2023-05-21T12:30:07;30.00;99.90
1568;DHT22;777;47.156;8.326;2023-05-21T12:32:39;30.00;99.90
1568;DHT22;777;47.156;8.326;2023-05-21T12:35:08;30.60;99.90
1568;DHT22;777;47.156;8.326;2023-05-21T12:37:35;30.60;99.90
1568;DHT22;777;47.156;8.326;2023-05-21T12:40:04;30.20;99.90
1568;DHT22;777;47.156;8.326;2023-05-21T12:42:32;29.20;99.90
1568;DHT22;777;47.156;8.326;2023-05-21T12:45:05;28.90;99.90
1568;DHT22;777;47.156;8.326;2023-05-21T12:47:33;29.40;99.90
1568;DHT22;777;47.156;8.326;2023-05-21T12:50:01;29.90;99.90
1568;DHT22;777;47.156;8.326;2023-05-21T12:52:28;30.50;99.90
1568;DHT22;777;47.156;8.326;2023-05-21T12:54:56;30.60;99.90
1568;DHT22;777;47.156;8.326;2023-05-21T12:57:26;29.90;99.90
1568;DHT22;777;47.156;8.326;2023-05-21T12:59:54;30.40;99.90
1568;DHT22;777;47.156;8.326;2023-05-21T13:02:25;30.30;99.90
1568;DHT22;777;47.156;8.326;2023-05-21T13:04:56;30.60;99.90
1568;DHT22;777;47.156;8.326;2023-05-21T13:07:23;30.10;99.90
1568;DHT22;777;47.156;8.326;2023-05-21T13:09:51;29.90;99.90
1568;DHT22;777;47.156;8.326;2023-05-21T13:12:19;30.10;99.90
1568;DHT22;777;47.156;8.326;2023-05-21T13:14:47;30.60;99.90
1568;DHT22;777;47.156;8.326;2023-05-21T13:17:14;30.40;99.90
1568;DHT22;777;47.156;8.326;2023-05-21T13:19:45;29.80;99.90
1568;DHT22;777;47.156;8.326;2023-05-21T13:22:12;29.00;99.90
1568;DHT22;777;47.156;8.326;2023-05-21T13:24:39;28.80;99.90
1568;DHT22;777;47.156;8.326;2023-05-21T13:27:06;28.70;99.90
1568;DHT22;777;47.156;8.326;2023-05-21T13:29:33;28.60;99.90
1568;DHT22;777;47.156;8.326;2023-05-21T13:32:04;28.70;99.90
1568;DHT22;777;47.156;8.326;2023-05-21T13:34:31;29.50;99.90
1568;DHT22;777;47.156;8.326;2023-05-21T13:39:26;30.90;99.90
1568;DHT22;777;47.156;8.326;2023-05-21T13:41:53;31.40;99.90
1568;DHT22;777;47.156;8.326;2023-05-21T13:44:20;31.20;99.90
1568;DHT22;777;47.156;8.326;2023-05-21T13:46:47;31.40;99.90
1568;DHT22;777;47.156;8.326;2023-05-21T13:49:14;31.10;99.90
1568;DHT22;777;47.156;8.326;2023-05-21T13:51:41;31.30;99.90
1568;DHT22;777;47.156;8.326;2023-05-21T13:54:10;31.60;99.90
1568;DHT22;777;47.156;8.326;2023-05-21T13:56:38;30.90;99.90
1568;DHT22;777;47.156;8.326;2023-05-21T13:59:05;31.70;99.90
1568;DHT22;777;47.156;8.326;2023-05-21T14:01:32;32.20;99.90
1568;DHT22;777;47.156;8.326;2023-05-21T14:03:59;32.30;99.90
1568;DHT22;777;47.156;8.326;2023-05-21T14:06:29;32.50;99.90
1568;DHT22;777;47.156;8.326;2023-05-21T14:08:57;28.80;99.90
1568;DHT22;777;47.156;8.326;2023-05-21T14:11:26;26.70;99.90
1568;DHT22;777;47.156;8.326;2023-05-21T14:13:53;26.60;99.90
1568;DHT22;777;47.156;8.326;2023-05-21T14:16:20;26.50;99.90
1568;DHT22;777;47.156;8.326;2023-05-21T14:18:49;27.20;99.90
1568;DHT22;777;47.156;8.326;2023-05-21T14:21:16;27.20;99.90
1568;DHT22;777;47.156;8.326;2023-05-21T14:23:43;27.70;99.90
1568;DHT22;777;47.156;8.326;2023-05-21T14:26:10;27.50;99.90
1568;DHT22;777;47.156;8.326;2023-05-21T14:28:38;27.00;99.90
1568;DHT22;777;47.156;8.326;2023-05-21T14:31:05;26.00;99.90
1568;DHT22;777;47.156;8.326;2023-05-21T14:33:34;25.50;99.90
1568;DHT22;777;47.156;8.326;2023-05-21T14:36:02;25.00;99.90
1568;DHT22;777;47.156;8.326;2023-05-21T14:38:29;25.10;99.90
1568;DHT22;777;47.156;8.326;2023-05-21T14:40:55;25.10;99.90
1568;DHT22;777;47.156;8.326;2023-05-21T14:43:22;24.70;99.90
1568;DHT22;777;47.156;8.326;2023-05-21T14:45:51;24.80;99.90
1568;DHT22;777;47.156;8.326;2023-05-21T14:48:18;24.80;99.90
1568;DHT22;777;47.156;8.326;2023-05-21T14:50:47;24.80;99.90
1568;DHT22;777;47.156;8.326;2023-05-21T14:53:14;24.50;99.90
1568;DHT22;777;47.156;8.326;2023-05-21T14:55:41;24.70;99.90
1568;DHT22;777;47.156;8.326;2023-05-21T14:58:08;24.50;99.90
1568;DHT22;777;47.156;8.326;2023-05-21T15:00:36;24.20;99.90
1568;DHT22;777;47.156;8.326;2023-05-21T15:03:05;24.10;99.90
1568;DHT22;777;47.156;8.326;2023-05-21T15:05:32;24.40;99.90
1568;DHT22;777;47.156;8.326;2023-05-21T15:07:59;24.40;99.90
1568;DHT22;777;47.156;8.326;2023-05-21T15:10:27;25.60;99.90
1568;DHT22;777;47.156;8.326;2023-05-21T15:12:54;25.60;99.90
1568;DHT22;777;47.156;8.326;2023-05-21T15:15:21;25.70;99.90
1568;DHT22;777;47.156;8.326;2023-05-21T15:17:49;25.70;99.90
1568;DHT22;777;47.156;8.326;2023-05-21T15:20:17;24.80;99.90
1568;DHT22;777;47.156;8.326;2023-05-21T15:22:45;24.20;99.90
1568;DHT22;777;47.156;8.326;2023-05-21T15:25:13;24.00;99.90
1568;DHT22;777;47.156;8.326;2023-05-21T15:27:43;24.00;99.90
1568;DHT22;777;47.156;8.326;2023-05-21T15:30:11;24.40;99.90
1568;DHT22;777;47.156;8.326;2023-05-21T15:32:38;24.40;99.90
1568;DHT22;777;47.156;8.326;2023-05-21T15:35:05;24.60;99.90
1568;DHT22;777;47.156;8.326;2023-05-21T15:37:34;25.00;99.90
1568;DHT22;777;47.156;8.326;2023-05-21T15:40:01;25.90;99.90
1568;DHT22;777;47.156;8.326;2023-05-21T15:42:28;26.90;99.90
1568;DHT22;777;47.156;8.326;2023-05-21T15:44:56;25.70;99.90
1568;DHT22;777;47.156;8.326;2023-05-21T15:47:23;24.80;99.90
1568;DHT22;777;47.156;8.326;2023-05-21T15:49:50;23.90;99.90
1568;DHT22;777;47.156;8.326;2023-05-21T15:52:17;23.70;99.90
1568;DHT22;777;47.156;8.326;2023-05-21T15:54:46;23.50;99.90
1568;DHT22;777;47.156;8.326;2023-05-21T15:57:13;23.50;99.90
1568;DHT22;777;47.156;8.326;2023-05-21T15:59:40;23.40;99.90
1568;DHT22;777;47.156;8.326;2023-05-21T16:02:07;23.30;99.90
1568;DHT22;777;47.156;8.326;2023-05-21T16:04:34;23.70;99.90
1568;DHT22;777;47.156;8.326;2023-05-21T16:07:01;23.90;99.90
1568;DHT22;777;47.156;8.326;2023-05-21T16:09:28;24.20;99.90
1568;DHT22;777;47.156;8.326;2023-05-21T16:11:57;25.00;99.90
1568;DHT22;777;47.156;8.326;2023-05-21T16:14:24;25.50;99.90
1568;DHT22;777;47.156;8.326;2023-05-21T16:16:51;25.70;99.90
1568;DHT22;777;47.156;8.326;2023-05-21T16:19:17;25.90;99.90
1568;DHT22;777;47.156;8.326;2023-05-21T16:21:44;25.90;99.90
1568;DHT22;777;47.156;8.326;2023-05-21T16:24:12;26.00;99.90
1568;DHT22;777;47.156;8.326;2023-05-21T16:26:38;26.10;99.90
1568;DHT22;777;47.156;8.326;2023-05-21T16:29:07;26.30;99.90
1568;DHT22;777;47.156;8.326;2023-05-21T16:31:34;27.00;99.90
1568;DHT22;777;47.156;8.326;2023-05-21T16:34:02;27.60;99.90
1568;DHT22;777;47.156;8.326;2023-05-21T16:36:29;28.50;99.90
1568;DHT22;777;47.156;8.326;2023-05-21T16:38:56;28.90;99.90
1568;DHT22;777;47.156;8.326;2023-05-21T16:41:23;28.40;99.90
1568;DHT22;777;47.156;8.326;2023-05-21T16:43:50;27.40;99.90
1568;DHT22;777;47.156;8.326;2023-05-21T16:46:20;27.20;99.90
1568;DHT22;777;47.156;8.326;2023-05-21T16:48:47;27.30;99.90
1568;DHT22;777;47.156;8.326;2023-05-21T16:51:14;27.30;99.90
1568;DHT22;777;47.156;8.326;2023-05-21T16:53:41;26.60;99.90
1568;DHT22;777;47.156;8.326;2023-05-21T16:56:08;26.10;99.90
1568;DHT22;777;47.156;8.326;2023-05-21T16:58:35;26.00;99.90